sensor_id;sensor_type;location;lat;lon;timestamp;pressure;altitude;pressure_sealevel;temperature;humidity
57904;BME280;43720;47.462;19.030;2023-08-17T03:57:52;100592.06;;;20.00;100.00
57904;BME280;43720;47.462;19.030;2023-08-17T04:00:54;100606.25;;;19.99;100.00
57904;BME280;43720;47.462;19.030;2023-08-17T04:03:58;100600.25;;;19.89;100.00
57904;BME280;43720;47.462;19.030;2023-08-17T04:07:00;100601.97;;;19.92;100.00
57904;BME280;43720;47.462;19.030;2023-08-17T04:10:05;100599.22;;;19.96;100.00
57904;BME280;43720;47.462;19.030;2023-08-17T04:13:08;100606.37;;;19.93;100.00
57904;BME280;43720;47.462;19.030;2023-08-17T04:16:10;100605.53;;;19.91;100.00
57904;BME280;43720;47.462;19.030;2023-08-17T04:19:13;100598.25;;;20.00;100.00
57904;BME280;43720;47.462;19.030;2023-08-17T04:22:15;100603.56;;;20.00;100.00
57904;BME280;43720;47.462;19.030;2023-08-17T04:25:19;100612.50;;;19.96;100.00
57904;BME280;43720;47.462;19.030;2023-08-17T04:28:21;100611.50;;;20.02;100.00
57904;BME280;43720;47.462;19.030;2023-08-17T04:31:23;100605.22;;;20.06;100.00
57904;BME280;43720;47.462;19.030;2023-08-17T04:34:27;100609.72;;;20.02;100.00
57904;BME280;43720;47.462;19.030;2023-08-17T04:37:29;100608.84;;;20.02;100.00
57904;BME280;43720;47.462;19.030;2023-08-17T04:40:32;100606.16;;;20.03;100.00
57904;BME280;43720;47.462;19.030;2023-08-17T04:43:35;100619.16;;;20.16;100.00
57904;BME280;43720;47.462;19.030;2023-08-17T04:46:38;100613.47;;;20.33;100.00
57904;BME280;43720;47.462;19.030;2023-08-17T04:49:40;100618.03;;;20.27;100.00
57904;BME280;43720;47.462;19.030;2023-08-17T04:52:44;100626.03;;;20.26;100.00
57904;BME280;43720;47.462;19.030;2023-08-17T04:55:46;100618.88;;;20.30;100.00
57904;BME280;43720;47.462;19.030;2023-08-17T04:58:49;100617.09;;;20.30;100.00
57904;BME280;43720;47.462;19.030;2023-08-17T05:01:52;100617.88;;;20.35;100.00
57904;BME280;43720;47.462;19.030;2023-08-17T05:04:56;100616.94;;;20.38;100.00
57904;BME280;43720;47.462;19.030;2023-08-17T05:07:59;100608.00;;;20.40;100.00
57904;BME280;43720;47.462;19.030;2023-08-17T05:11:01;100617.69;;;20.44;100.00
57904;BME280;43720;47.462;19.030;2023-08-17T05:14:04;100614.03;;;20.50;100.00
57904;BME280;43720;47.462;19.030;2023-08-17T05:17:06;100608.59;;;20.56;100.00
57904;BME280;43720;47.462;19.030;2023-08-17T05:20:09;100606.44;;;20.72;100.00
57904;BME280;43720;47.462;19.030;2023-08-17T05:23:12;100615.94;;;20.82;100.00
57904;BME280;43720;47.462;19.030;2023-08-17T05:26:14;100611.41;;;20.86;100.00
57904;BME280;43720;47.462;19.030;2023-08-17T05:29:18;100622.72;;;20.95;100.00
57904;BME280;43720;47.462;19.030;2023-08-17T05:32:20;100619.87;;;21.01;100.00
57904;BME280;43720;47.462;19.030;2023-08-17T05:35:24;100612.69;;;21.07;100.00
57904;BME280;43720;47.462;19.030;2023-08-17T05:38:26;100614.19;;;21.17;100.00
57904;BME280;43720;47.462;19.030;2023-08-17T05:41:29;100612.53;;;21.13;100.00
57904;BME280;43720;47.462;19.030;2023-08-17T05:44:31;100611.59;;;21.15;100.00
57904;BME280;43720;47.462;19.030;2023-08-17T05:47:33;100618.50;;;21.21;100.00
57904;BME280;43720;47.462;19.030;2023-08-17T05:50:36;100622.03;;;21.23;100.00
57904;BME280;43720;47.462;19.030;2023-08-17T05:53:38;100612.91;;;21.32;100.00
57904;BME280;43720;47.462;19.030;2023-08-17T05:56:40;100610.75;;;21.49;100.00
57904;BME280;43720;47.462;19.030;2023-08-17T05:59:48;100619.91;;;21.70;100.00
57904;BME280;43720;47.462;19.030;2023-08-17T06:02:51;100615.81;;;21.89;100.00
57904;BME280;43720;47.462;19.030;2023-08-17T06:05:54;100618.00;;;22.06;100.00
57904;BME280;43720;47.462;19.030;2023-08-17T06:08:56;100608.91;;;22.15;100.00
57904;BME280;43720;47.462;19.030;2023-08-17T06:11:58;100600.56;;;22.27;100.00
57904;BME280;43720;47.462;19.030;2023-08-17T06:15:04;100603.75;;;22.38;100.00
57904;BME280;43720;47.462;19.030;2023-08-17T06:18:07;100598.47;;;22.37;100.00
57904;BME280;43720;47.462;19.030;2023-08-17T06:21:09;100608.31;;;22.35;100.00
57904;BME280;43720;47.462;19.030;2023-08-17T06:24:12;100602.16;;;22.33;100.00
57904;BME280;43720;47.462;19.030;2023-08-17T06:27:14;100602.38;;;22.25;100.00
57904;BME280;43720;47.462;19.030;2023-08-17T06:30:18;100597.25;;;22.19;100.00
57904;BME280;43720;47.462;19.030;2023-08-17T06:33:21;100589.06;;;22.25;100.00
57904;BME280;43720;47.462;19.030;2023-08-17T06:36:23;100593.59;;;22.21;100.00
57904;BME280;43720;47.462;19.030;2023-08-17T06:39:26;100588.25;;;22.23;100.00
57904;BME280;43720;47.462;19.030;2023-08-17T06:42:28;100589.53;;;22.39;100.00
57904;BME280;43720;47.462;19.030;2023-08-17T06:45:31;100587.31;;;22.54;100.00
57904;BME280;43720;47.462;19.030;2023-08-17T06:48:34;100581.75;;;22.60;100.00
57904;BME280;43720;47.462;19.030;2023-08-17T06:51:36;100578.75;;;22.70;100.00
57904;BME280;43720;47.462;19.030;2023-08-17T06:54:38;100570.84;;;22.67;100.00
57904;BME280;43720;47.462;19.030;2023-08-17T06:57:41;100578.06;;;22.65;100.00
57904;BME280;43720;47.462;19.030;2023-08-17T07:00:43;100586.13;;;22.62;100.00
57904;BME280;43720;47.462;19.030;2023-08-17T07:03:46;100588.34;;;22.76;100.00
57904;BME280;43720;47.462;19.030;2023-08-17T07:06:48;100592.56;;;22.83;100.00
57904;BME280;43720;47.462;19.030;2023-08-17T07:09:51;100597.66;;;22.91;100.00
57904;BME280;43720;47.462;19.030;2023-08-17T07:12:54;100599.50;;;22.89;100.00
57904;BME280;43720;47.462;19.030;2023-08-17T07:15:56;100595.12;;;22.86;100.00
57904;BME280;43720;47.462;19.030;2023-08-17T07:18:59;100597.72;;;22.88;100.00
57904;BME280;43720;47.462;19.030;2023-08-17T07:22:01;100600.34;;;22.91;100.00
57904;BME280;43720;47.462;19.030;2023-08-17T07:25:04;100603.91;;;22.90;100.00
57904;BME280;43720;47.462;19.030;2023-08-17T07:28:06;100609.03;;;22.96;100.00
57904;BME280;43720;47.462;19.030;2023-08-17T07:31:09;100604.72;;;22.92;100.00
57904;BME280;43720;47.462;19.030;2023-08-17T07:34:11;100606.28;;;22.99;100.00
57904;BME280;43720;47.462;19.030;2023-08-17T07:37:13;100602.75;;;22.99;100.00
57904;BME280;43720;47.462;19.030;2023-08-17T07:40:17;100600.78;;;23.04;99.19
57904;BME280;43720;47.462;19.030;2023-08-17T07:43:19;100598.19;;;23.02;100.00
57904;BME280;43720;47.462;19.030;2023-08-17T07:46:21;100597.06;;;23.09;99.34
57904;BME280;43720;47.462;19.030;2023-08-17T07:49:25;100597.72;;;23.16;96.96
57904;BME280;43720;47.462;19.030;2023-08-17T07:52:33;100600.16;;;23.24;94.56
57904;BME280;43720;47.462;19.030;2023-08-17T07:55:36;100597.25;;;23.30;93.68
57904;BME280;43720;47.462;19.030;2023-08-17T07:58:38;100597.97;;;23.35;92.85
57904;BME280;43720;47.462;19.030;2023-08-17T08:01:41;100600.34;;;23.42;93.13
57904;BME280;43720;47.462;19.030;2023-08-17T08:04:44;100592.97;;;23.51;92.64
57904;BME280;43720;47.462;19.030;2023-08-17T08:07:47;100604.28;;;23.57;92.24
57904;BME280;43720;47.462;19.030;2023-08-17T08:10:53;100596.87;;;23.65;92.87
57904;BME280;43720;47.462;19.030;2023-08-17T08:14:01;100593.16;;;23.71;94.13
57904;BME280;43720;47.462;19.030;2023-08-17T08:17:05;100596.91;;;23.89;91.01
57904;BME280;43720;47.462;19.030;2023-08-17T08:20:07;100588.81;;;24.15;87.90
57904;BME280;43720;47.462;19.030;2023-08-17T08:23:10;100589.78;;;24.36;86.21
57904;BME280;43720;47.462;19.030;2023-08-17T08:26:13;100588.69;;;24.42;85.51
57904;BME280;43720;47.462;19.030;2023-08-17T08:29:15;100580.69;;;24.42;85.21
57904;BME280;43720;47.462;19.030;2023-08-17T08:32:18;100590.09;;;24.52;86.49
57904;BME280;43720;47.462;19.030;2023-08-17T08:35:20;100583.88;;;24.52;83.94
57904;BME280;43720;47.462;19.030;2023-08-17T08:38:24;100585.84;;;24.47;87.33
57904;BME280;43720;47.462;19.030;2023-08-17T08:41:29;100591.38;;;24.42;93.00
57904;BME280;43720;47.462;19.030;2023-08-17T08:44:31;100600.47;;;24.36;91.98
57904;BME280;43720;47.462;19.030;2023-08-17T08:47:36;100598.97;;;24.29;90.84
57904;BME280;43720;47.462;19.030;2023-08-17T08:50:40;100595.91;;;24.16;93.88
57904;BME280;43720;47.462;19.030;2023-08-17T08:53:45;100596.41;;;24.03;95.10
57904;BME280;43720;47.462;19.030;2023-08-17T08:57:01;100600.34;;;23.92;98.18
57904;BME280;43720;47.462;19.030;2023-08-17T09:00:06;100598.09;;;23.82;99.58
57904;BME280;43720;47.462;19.030;2023-08-17T09:03:10;100593.31;;;23.66;100.00
57904;BME280;43720;47.462;19.030;2023-08-17T09:06:18;100596.44;;;23.53;100.00
57904;BME280;43720;47.462;19.030;2023-08-17T09:09:21;100596.69;;;23.47;100.00
57904;BME280;43720;47.462;19.030;2023-08-17T09:12:30;100598.44;;;23.46;100.00
57904;BME280;43720;47.462;19.030;2023-08-17T09:15:41;100600.97;;;23.51;100.00
57904;BME280;43720;47.462;19.030;2023-08-17T09:18:44;100601.19;;;23.70;100.00
57904;BME280;43720;47.462;19.030;2023-08-17T09:21:46;100591.53;;;23.90;100.00
57904;BME280;43720;47.462;19.030;2023-08-17T09:24:52;100588.97;;;24.11;100.00
57904;BME280;43720;47.462;19.030;2023-08-17T09:27:57;100581.25;;;24.03;100.00
57904;BME280;43720;47.462;19.030;2023-08-17T09:31:01;100579.63;;;23.99;100.00
57904;BME280;43720;47.462;19.030;2023-08-17T09:34:06;100574.97;;;24.04;100.00
57904;BME280;43720;47.462;19.030;2023-08-17T09:37:09;100573.06;;;24.08;100.00
57904;BME280;43720;47.462;19.030;2023-08-17T09:40:14;100570.94;;;24.17;97.79
57904;BME280;43720;47.462;19.030;2023-08-17T09:43:17;100572.19;;;24.31;96.45
57904;BME280;43720;47.462;19.030;2023-08-17T09:46:20;100573.53;;;24.43;94.10
57904;BME280;43720;47.462;19.030;2023-08-17T09:49:23;100562.41;;;24.53;90.52
57904;BME280;43720;47.462;19.030;2023-08-17T09:52:26;100569.94;;;24.65;94.04
57904;BME280;43720;47.462;19.030;2023-08-17T09:55:30;100561.59;;;24.73;92.78
57904;BME280;43720;47.462;19.030;2023-08-17T09:58:36;100558.03;;;24.95;93.05
57904;BME280;43720;47.462;19.030;2023-08-17T10:01:39;100554.69;;;25.11;88.40
57904;BME280;43720;47.462;19.030;2023-08-17T10:04:44;100555.16;;;25.21;88.73
57904;BME280;43720;47.462;19.030;2023-08-17T10:07:49;100559.25;;;25.30;89.57
57904;BME280;43720;47.462;19.030;2023-08-17T10:10:52;100550.75;;;25.41;87.86
57904;BME280;43720;47.462;19.030;2023-08-17T10:14:02;100550.31;;;25.50;83.46
57904;BME280;43720;47.462;19.030;2023-08-17T10:17:15;100554.59;;;25.54;87.07
57904;BME280;43720;47.462;19.030;2023-08-17T10:20:21;100556.47;;;25.72;85.75
57904;BME280;43720;47.462;19.030;2023-08-17T10:23:26;100550.59;;;25.64;83.74
57904;BME280;43720;47.462;19.030;2023-08-17T10:26:29;100556.00;;;25.62;86.56
57904;BME280;43720;47.462;19.030;2023-08-17T10:29:32;100553.91;;;25.69;84.11
57904;BME280;43720;47.462;19.030;2023-08-17T10:32:35;100551.75;;;25.77;81.08
57904;BME280;43720;47.462;19.030;2023-08-17T10:35:39;100547.88;;;25.84;82.98
57904;BME280;43720;47.462;19.030;2023-08-17T10:38:41;100543.84;;;25.95;82.39
57904;BME280;43720;47.462;19.030;2023-08-17T10:41:48;100545.87;;;26.08;80.21
57904;BME280;43720;47.462;19.030;2023-08-17T10:44:50;100536.59;;;26.34;78.07
57904;BME280;43720;47.462;19.030;2023-08-17T10:51:11;100538.19;;;26.39;74.15
57904;BME280;43720;47.462;19.030;2023-08-17T10:54:36;100545.72;;;26.30;76.06
57904;BME280;43720;47.462;19.030;2023-08-17T10:57:40;100532.69;;;26.42;76.30
57904;BME280;43720;47.462;19.030;2023-08-17T11:00:43;100544.25;;;26.42;76.20
57904;BME280;43720;47.462;19.030;2023-08-17T11:03:47;100546.00;;;26.24;74.94
57904;BME280;43720;47.462;19.030;2023-08-17T11:07:01;100542.69;;;26.00;77.43
57904;BME280;43720;47.462;19.030;2023-08-17T11:13:22;100545.59;;;26.33;76.95
57904;BME280;43720;47.462;19.030;2023-08-17T11:16:29;100538.03;;;26.61;78.26
57904;BME280;43720;47.462;19.030;2023-08-17T11:19:32;100538.91;;;26.61;79.16
57904;BME280;43720;47.462;19.030;2023-08-17T11:22:34;100538.63;;;26.48;80.02
57904;BME280;43720;47.462;19.030;2023-08-17T11:25:37;100536.44;;;26.38;79.28
57904;BME280;43720;47.462;19.030;2023-08-17T11:28:40;100531.09;;;26.38;79.52
57904;BME280;43720;47.462;19.030;2023-08-17T11:31:44;100534.16;;;26.66;72.87
57904;BME280;43720;47.462;19.030;2023-08-17T11:34:52;100530.19;;;26.92;75.37
57904;BME280;43720;47.462;19.030;2023-08-17T11:38:03;100533.69;;;27.12;74.11
57904;BME280;43720;47.462;19.030;2023-08-17T11:41:10;100537.69;;;27.20;75.66
57904;BME280;43720;47.462;19.030;2023-08-17T11:44:19;100538.19;;;27.11;74.34
57904;BME280;43720;47.462;19.030;2023-08-17T11:47:26;100532.88;;;26.92;75.34
57904;BME280;43720;47.462;19.030;2023-08-17T11:50:34;100539.09;;;26.93;74.83
57904;BME280;43720;47.462;19.030;2023-08-17T11:53:41;100529.53;;;26.70;73.89
57904;BME280;43720;47.462;19.030;2023-08-17T11:56:49;100533.31;;;26.66;75.19
57904;BME280;43720;47.462;19.030;2023-08-17T11:59:53;100524.69;;;26.59;74.07
57904;BME280;43720;47.462;19.030;2023-08-17T12:02:57;100526.75;;;26.54;74.86
57904;BME280;43720;47.462;19.030;2023-08-17T12:05:59;100518.78;;;26.52;74.37
57904;BME280;43720;47.462;19.030;2023-08-17T12:09:04;100521.66;;;26.48;76.82
57904;BME280;43720;47.462;19.030;2023-08-17T12:12:07;100516.38;;;26.46;75.63
57904;BME280;43720;47.462;19.030;2023-08-17T12:15:10;100521.94;;;26.42;75.27
57904;BME280;43720;47.462;19.030;2023-08-17T12:18:15;100507.69;;;26.41;76.07
57904;BME280;43720;47.462;19.030;2023-08-17T12:21:22;100510.03;;;26.66;76.37
57904;BME280;43720;47.462;19.030;2023-08-17T12:24:29;100504.59;;;27.37;73.19
57904;BME280;43720;47.462;19.030;2023-08-17T12:27:33;100500.34;;;27.66;71.61
57904;BME280;43720;47.462;19.030;2023-08-17T12:30:35;100501.63;;;27.59;71.55
57904;BME280;43720;47.462;19.030;2023-08-17T12:33:39;100497.22;;;27.58;68.73
57904;BME280;43720;47.462;19.030;2023-08-17T12:36:44;100499.00;;;27.75;67.56
57904;BME280;43720;47.462;19.030;2023-08-17T12:39:47;100495.72;;;28.17;65.86
57904;BME280;43720;47.462;19.030;2023-08-17T12:42:50;100483.56;;;28.73;63.71
57904;BME280;43720;47.462;19.030;2023-08-17T12:45:53;100492.13;;;29.10;64.25
57904;BME280;43720;47.462;19.030;2023-08-17T12:48:55;100474.06;;;29.12;61.55
57904;BME280;43720;47.462;19.030;2023-08-17T12:51:57;100484.19;;;28.93;62.17
57904;BME280;43720;47.462;19.030;2023-08-17T12:55:00;100468.03;;;28.63;64.51
57904;BME280;43720;47.462;19.030;2023-08-17T12:58:02;100463.19;;;28.53;62.55
57904;BME280;43720;47.462;19.030;2023-08-17T13:01:05;100455.72;;;28.59;63.18
57904;BME280;43720;47.462;19.030;2023-08-17T13:04:07;100452.41;;;28.53;62.41
57904;BME280;43720;47.462;19.030;2023-08-17T13:07:10;100454.66;;;28.61;66.14
57904;BME280;43720;47.462;19.030;2023-08-17T13:10:12;100448.72;;;28.40;65.30
57904;BME280;43720;47.462;19.030;2023-08-17T13:13:15;100449.50;;;28.26;64.26
57904;BME280;43720;47.462;19.030;2023-08-17T13:16:17;100444.16;;;27.95;64.84
57904;BME280;43720;47.462;19.030;2023-08-17T13:19:19;100439.03;;;28.06;63.97
57904;BME280;43720;47.462;19.030;2023-08-17T13:22:27;100435.44;;;28.21;64.82
57904;BME280;43720;47.462;19.030;2023-08-17T13:25:30;100433.59;;;28.08;66.98
57904;BME280;43720;47.462;19.030;2023-08-17T13:28:32;100440.16;;;27.86;67.73
57904;BME280;43720;47.462;19.030;2023-08-17T13:31:34;100440.56;;;27.63;69.76
57904;BME280;43720;47.462;19.030;2023-08-17T13:34:37;100439.94;;;27.42;72.48
57904;BME280;43720;47.462;19.030;2023-08-17T13:37:40;100437.69;;;27.50;71.72
57904;BME280;43720;47.462;19.030;2023-08-17T13:40:43;100438.00;;;27.77;70.25
57904;BME280;43720;47.462;19.030;2023-08-17T13:43:45;100436.34;;;27.74;68.93
57904;BME280;43720;47.462;19.030;2023-08-17T13:46:47;100445.59;;;27.69;68.26
57904;BME280;43720;47.462;19.030;2023-08-17T13:49:50;100434.38;;;27.61;68.84
57904;BME280;43720;47.462;19.030;2023-08-17T13:52:52;100429.09;;;27.43;69.15
57904;BME280;43720;47.462;19.030;2023-08-17T13:55:54;100425.34;;;27.30;71.47
57904;BME280;43720;47.462;19.030;2023-08-17T13:58:57;100426.87;;;27.18;71.14
57904;BME280;43720;47.462;19.030;2023-08-17T14:01:59;100422.09;;;27.06;69.43
57904;BME280;43720;47.462;19.030;2023-08-17T14:05:02;100424.50;;;26.95;69.90
57904;BME280;43720;47.462;19.030;2023-08-17T14:08:04;100427.75;;;26.84;74.40
57904;BME280;43720;47.462;19.030;2023-08-17T14:11:08;100432.09;;;26.69;75.24
57904;BME280;43720;47.462;19.030;2023-08-17T14:14:10;100425.56;;;26.57;76.62
57904;BME280;43720;47.462;19.030;2023-08-17T14:17:12;100435.88;;;26.48;76.91
57904;BME280;43720;47.462;19.030;2023-08-17T14:20:14;100438.03;;;26.40;76.89
57904;BME280;43720;47.462;19.030;2023-08-17T14:23:17;100443.41;;;26.40;77.34
57904;BME280;43720;47.462;19.030;2023-08-17T14:26:20;100445.12;;;26.41;77.87
57904;BME280;43720;47.462;19.030;2023-08-17T14:29:22;100445.66;;;26.49;81.71
57904;BME280;43720;47.462;19.030;2023-08-17T14:32:24;100446.91;;;26.59;81.37
57904;BME280;43720;47.462;19.030;2023-08-17T14:35:27;100439.91;;;26.74;78.76
57904;BME280;43720;47.462;19.030;2023-08-17T14:38:33;100431.56;;;26.80;76.88
57904;BME280;43720;47.462;19.030;2023-08-17T14:41:38;100436.13;;;26.78;78.09
57904;BME280;43720;47.462;19.030;2023-08-17T14:44:41;100426.03;;;26.66;78.45
57904;BME280;43720;47.462;19.030;2023-08-17T14:47:43;100430.19;;;26.54;81.21
57904;BME280;43720;47.462;19.030;2023-08-17T14:50:46;100426.59;;;26.36;83.50
57904;BME280;43720;47.462;19.030;2023-08-17T14:53:54;100425.41;;;26.24;84.54
57904;BME280;43720;47.462;19.030;2023-08-17T14:56:56;100421.28;;;26.17;84.72
57904;BME280;43720;47.462;19.030;2023-08-17T14:59:59;100418.28;;;26.06;85.84
57904;BME280;43720;47.462;19.030;2023-08-17T15:03:02;100426.75;;;25.97;83.68
57904;BME280;43720;47.462;19.030;2023-08-17T15:06:08;100421.78;;;25.89;87.26
57904;BME280;43720;47.462;19.030;2023-08-17T15:09:33;100424.75;;;25.83;90.69
57904;BME280;43720;47.462;19.030;2023-08-17T15:12:36;100413.44;;;25.76;88.99
57904;BME280;43720;47.462;19.030;2023-08-17T15:15:38;100404.44;;;25.79;82.71
57904;BME280;43720;47.462;19.030;2023-08-17T15:18:41;100406.91;;;26.01;74.38
57904;BME280;43720;47.462;19.030;2023-08-17T15:21:43;100405.97;;;26.02;74.90
57904;BME280;43720;47.462;19.030;2023-08-17T15:24:45;100404.22;;;26.01;77.12
57904;BME280;43720;47.462;19.030;2023-08-17T15:27:48;100401.69;;;25.98;77.30
57904;BME280;43720;47.462;19.030;2023-08-17T15:31:00;100400.91;;;25.96;76.13
57904;BME280;43720;47.462;19.030;2023-08-17T15:34:03;100403.22;;;26.03;72.64
57904;BME280;43720;47.462;19.030;2023-08-17T15:37:06;100401.69;;;25.98;77.60
57904;BME280;43720;47.462;19.030;2023-08-17T15:40:09;100395.84;;;25.90;78.94
